createdAt,value
2018-09-01T00:00:09.721Z,15.27
2018-09-01T00:02:38.715Z,15.27
2018-09-01T00:05:08.385Z,15.29
2018-09-01T00:07:37.242Z,15.31
2018-09-01T00:10:07.689Z,15.30
2018-09-01T00:12:37.347Z,15.29
2018-09-01T00:15:07.215Z,15.28
2018-09-01T00:17:36.560Z,15.28
2018-09-01T00:20:05.949Z,15.29
2018-09-01T00:22:35.526Z,15.31
2018-09-01T00:25:04.750Z,15.33
2018-09-01T00:27:34.259Z,15.31
2018-09-01T00:30:04.361Z,15.33
2018-09-01T00:32:33.145Z,15.33
2018-09-01T00:35:03.026Z,15.31
2018-09-01T00:37:37.016Z,15.29
2018-09-01T00:40:07.079Z,15.28
2018-09-01T00:42:37.030Z,15.28
2018-09-01T00:45:06.699Z,15.26
2018-09-01T00:47:35.857Z,15.27
2018-09-01T00:50:05.800Z,15.28
2018-09-01T00:52:34.794Z,15.28
2018-09-01T00:55:03.637Z,15.29
2018-09-01T00:57:32.983Z,15.31
2018-09-01T01:00:01.820Z,15.32
2018-09-01T01:02:30.574Z,15.30
2018-09-01T01:04:59.887Z,15.29
2018-09-01T01:07:28.683Z,15.33
2018-09-01T01:09:57.581Z,15.31
2018-09-01T01:12:27.167Z,15.31
2018-09-01T01:14:55.984Z,15.31
2018-09-01T01:17:25.303Z,15.30
2018-09-01T01:19:54.120Z,15.31
2018-09-01T01:22:23.404Z,15.31
2018-09-01T01:24:52.199Z,15.30
2018-09-01T01:27:21.916Z,15.32
2018-09-01T01:29:51.574Z,15.32
2018-09-01T01:32:20.324Z,15.32
2018-09-01T01:34:50.372Z,15.32
2018-09-01T01:37:19.104Z,15.34
2018-09-01T01:39:48.427Z,15.37
2018-09-01T01:42:17.951Z,15.38
2018-09-01T01:44:47.295Z,15.37
2018-09-01T01:47:16.083Z,15.31
2018-09-01T01:49:45.729Z,15.33
2018-09-01T01:52:14.822Z,15.31
2018-09-01T01:54:43.557Z,15.29
2018-09-01T01:57:13.052Z,15.28
2018-09-01T01:59:41.906Z,15.25
2018-09-01T02:02:10.956Z,15.28
2018-09-01T02:04:40.255Z,15.30
2018-09-01T02:07:09.319Z,15.28
2018-09-01T02:09:38.124Z,15.25
2018-09-01T02:12:08.529Z,15.22
2018-09-01T02:14:37.281Z,15.22
2018-09-01T02:17:07.009Z,15.26
2018-09-01T02:19:36.071Z,15.26
2018-09-01T02:22:05.526Z,15.26
2018-09-01T02:24:34.751Z,15.27
2018-09-01T02:27:03.846Z,15.28
2018-09-01T02:29:33.684Z,15.28
2018-09-01T02:32:02.704Z,15.30
2018-09-01T02:34:32.165Z,15.27
2018-09-01T02:37:01.015Z,15.25
2018-09-01T02:39:30.434Z,15.23
2018-09-01T02:41:59.375Z,15.21
2018-09-01T02:44:28.938Z,15.20
2018-09-01T02:46:57.740Z,15.21
2018-09-01T02:49:27.263Z,15.21
2018-09-01T02:51:56.181Z,15.18
2018-09-01T02:54:24.934Z,15.17
2018-09-01T02:56:54.429Z,15.16
2018-09-01T02:59:23.191Z,15.15
2018-09-01T03:01:52.057Z,15.17
2018-09-01T03:04:22.296Z,15.22
2018-09-01T03:06:54.633Z,15.21
2018-09-01T03:09:23.917Z,15.21
2018-09-01T03:11:54.298Z,15.20
2018-09-01T03:14:23.935Z,15.15
2018-09-01T03:16:54.419Z,15.17
2018-09-01T03:19:23.639Z,15.11
2018-09-01T03:21:52.468Z,15.09
2018-09-01T03:24:21.311Z,15.07
2018-09-01T03:26:50.080Z,15.04
2018-09-01T03:29:18.954Z,15.08
2018-09-01T03:31:48.601Z,15.11
2018-09-01T03:34:18.203Z,15.10
2018-09-01T03:36:47.047Z,15.10
2018-09-01T03:39:16.453Z,15.07
2018-09-01T03:41:45.415Z,15.09
2018-09-01T03:44:14.944Z,15.09
2018-09-01T03:46:43.783Z,15.08
2018-09-01T03:49:13.414Z,15.10
2018-09-01T03:51:42.188Z,15.09
2018-09-01T03:54:11.014Z,15.12
2018-09-01T03:56:40.346Z,15.11
2018-09-01T03:59:09.192Z,15.07
2018-09-01T04:01:37.973Z,15.06
2018-09-01T04:04:06.920Z,14.99
2018-09-01T04:06:37.017Z,14.96
2018-09-01T04:09:07.129Z,14.93
2018-09-01T04:11:36.760Z,14.93
2018-09-01T04:14:05.883Z,14.90
2018-09-01T04:16:35.984Z,14.91
2018-09-01T04:19:10.119Z,14.90
2018-09-01T04:21:38.927Z,14.87
2018-09-01T04:24:07.771Z,14.88
2018-09-01T04:26:37.124Z,14.88
2018-09-01T04:29:06.440Z,14.89
2018-09-01T04:31:36.196Z,14.89
2018-09-01T04:34:05.860Z,14.92
2018-09-01T04:36:35.256Z,14.95
2018-09-01T04:39:06.270Z,14.96
2018-09-01T04:41:35.475Z,14.96
2018-09-01T04:44:05.014Z,14.94
2018-09-01T04:46:33.909Z,14.93
2018-09-01T04:49:03.343Z,14.93
2018-09-01T04:51:32.123Z,14.92
2018-09-01T04:54:01.061Z,14.96
2018-09-01T04:56:30.376Z,14.99
2018-09-01T04:58:59.564Z,14.98
2018-09-01T05:01:28.547Z,14.99
2018-09-01T05:03:57.210Z,15.00
2018-09-01T05:06:26.761Z,15.02
2018-09-01T05:08:55.532Z,14.98
2018-09-01T05:11:25.083Z,15.00
2018-09-01T05:13:53.871Z,15.02
2018-09-01T05:16:23.408Z,15.07
2018-09-01T05:18:52.433Z,15.10
2018-09-01T05:21:21.224Z,15.11
2018-09-01T05:23:50.029Z,15.15
2018-09-01T05:26:18.809Z,15.21
2018-09-01T05:28:47.759Z,15.22
2018-09-01T05:31:17.352Z,15.18
2018-09-01T05:33:47.180Z,15.22
2018-09-01T05:36:16.113Z,15.27
2018-09-01T05:38:45.565Z,15.31
2018-09-01T05:41:15.346Z,15.35
2018-09-01T05:43:45.057Z,15.42
2018-09-01T05:46:13.969Z,15.45
2018-09-01T05:48:43.420Z,15.49
2018-09-01T05:51:12.353Z,15.51
2018-09-01T05:53:41.114Z,15.53
2018-09-01T05:56:09.964Z,15.49
2018-09-01T05:58:39.440Z,15.55
2018-09-01T06:01:08.283Z,15.58
2018-09-01T06:03:37.733Z,15.70
2018-09-01T06:06:07.256Z,15.80
2018-09-01T06:08:36.470Z,15.82
2018-09-01T06:11:06.179Z,15.81
2018-09-01T06:13:35.396Z,15.74
2018-09-01T06:16:05.075Z,15.73
2018-09-01T06:18:34.041Z,15.72
2018-09-01T06:21:02.813Z,15.66
2018-09-01T06:23:31.845Z,15.59
2018-09-01T06:26:00.611Z,15.51
2018-09-01T06:28:48.530Z,15.50
2018-09-01T06:31:18.987Z,15.44
2018-09-01T06:33:48.660Z,15.40
2018-09-01T06:36:17.525Z,15.42
2018-09-01T06:38:46.879Z,15.46
2018-09-01T06:41:16.318Z,15.53
2018-09-01T06:43:45.707Z,15.58
2018-09-01T06:46:14.699Z,15.63
2018-09-01T06:48:44.408Z,15.71
2018-09-01T06:51:13.156Z,15.79
2018-09-01T06:53:42.100Z,15.82
2018-09-01T06:56:11.594Z,15.86
2018-09-01T06:58:41.107Z,15.81
2018-09-01T07:01:09.848Z,15.76
2018-09-01T07:03:38.698Z,15.75
2018-09-01T07:06:08.049Z,15.72
2018-09-01T07:08:36.940Z,15.73
2018-09-01T07:11:07.224Z,15.73
2018-09-01T07:13:36.240Z,15.77
2018-09-01T07:16:06.659Z,15.89
2018-09-01T07:18:35.923Z,15.94
2018-09-01T07:21:04.900Z,15.92
2018-09-01T07:23:33.761Z,15.95
2018-09-01T07:26:02.522Z,15.98
2018-09-01T07:28:31.392Z,15.96
2018-09-01T07:31:01.357Z,16.00
2018-09-01T07:33:30.525Z,15.99
2018-09-01T07:35:59.611Z,16.04
2018-09-01T07:38:29.047Z,16.04
2018-09-01T07:40:58.584Z,16.14
2018-09-01T07:43:27.799Z,16.26
2018-09-01T07:45:56.603Z,16.35
2018-09-01T07:48:26.271Z,16.29
2018-09-01T07:50:55.752Z,16.11
2018-09-01T07:53:24.487Z,16.03
2018-09-01T07:55:53.398Z,16.03
2018-09-01T07:58:23.169Z,16.07
2018-09-01T08:00:51.955Z,16.11
2018-09-01T08:03:20.698Z,16.17
2018-09-01T08:05:50.051Z,16.24
2018-09-01T08:08:18.874Z,16.29
2018-09-01T08:10:48.196Z,16.33
2018-09-01T08:13:17.033Z,16.27
2018-09-01T08:15:47.617Z,16.27
2018-09-01T08:18:16.419Z,16.32
2018-09-01T08:20:45.496Z,16.28
2018-09-01T08:23:14.770Z,16.27
2018-09-01T08:25:43.693Z,16.31
2018-09-01T08:28:12.716Z,16.29
2018-09-01T08:30:42.083Z,16.31
2018-09-01T08:33:11.795Z,16.40
2018-09-01T08:35:40.635Z,16.36
2018-09-01T08:38:09.444Z,16.32
2018-09-01T08:40:38.669Z,16.34
2018-09-01T08:43:08.891Z,16.32
2018-09-01T08:45:37.726Z,16.40
2018-09-01T08:48:07.646Z,16.52
2018-09-01T08:50:36.820Z,16.67
2018-09-01T08:53:06.197Z,16.74
2018-09-01T08:55:35.469Z,16.84
2018-09-01T08:58:05.045Z,16.93
2018-09-01T09:00:34.282Z,17.02
2018-09-01T09:03:03.096Z,17.12
2018-09-01T09:05:32.565Z,17.09
2018-09-01T09:08:01.343Z,17.20
2018-09-01T09:10:30.756Z,17.26
2018-09-01T09:12:59.573Z,17.20
2018-09-01T09:15:28.903Z,17.12
2018-09-01T09:17:57.717Z,17.12
2018-09-01T09:20:26.536Z,17.23
2018-09-01T09:22:55.346Z,17.34
2018-09-01T09:25:24.208Z,17.37
2018-09-01T09:27:53.106Z,17.41
2018-09-01T09:30:22.471Z,17.22
2018-09-01T09:32:51.318Z,17.24
2018-09-01T09:35:20.668Z,17.17
2018-09-01T09:37:49.434Z,17.10
2018-09-01T09:40:18.756Z,17.21
2018-09-01T09:42:48.096Z,17.22
2018-09-01T09:45:16.903Z,17.23
2018-09-01T09:47:47.191Z,17.24
2018-09-01T09:50:15.968Z,17.13
2018-09-01T09:52:45.579Z,17.02
2018-09-01T09:55:15.467Z,16.92
2018-09-01T09:57:45.207Z,16.95
2018-09-01T10:00:14.095Z,16.99
2018-09-01T10:02:43.184Z,16.99
2018-09-01T10:05:12.865Z,17.06
2018-09-01T10:07:41.645Z,17.19
2018-09-01T10:10:10.423Z,17.31
2018-09-01T10:12:39.875Z,17.45
2018-09-01T10:15:09.280Z,17.57
2018-09-01T10:17:38.047Z,17.61
2018-09-01T10:20:07.235Z,17.62
2018-09-01T10:22:36.293Z,17.61
2018-09-01T10:25:05.465Z,17.66
2018-09-01T10:27:34.695Z,17.66
2018-09-01T10:30:04.297Z,17.72
2018-09-01T10:32:33.039Z,17.83
2018-09-01T10:35:02.785Z,17.97
2018-09-01T10:37:31.511Z,18.09
2018-09-01T10:40:00.940Z,18.21
2018-09-01T10:42:30.429Z,18.29
2018-09-01T10:44:59.537Z,18.33
2018-09-01T10:47:28.433Z,18.27
2018-09-01T10:49:58.042Z,18.24
2018-09-01T10:52:26.807Z,18.27
2018-09-01T10:54:55.591Z,18.36
2018-09-01T10:57:25.111Z,18.29
2018-09-01T10:59:54.015Z,18.34
2018-09-01T11:02:22.819Z,18.34
2018-09-01T11:04:52.454Z,18.38
2018-09-01T11:07:21.217Z,18.39
2018-09-01T11:09:50.025Z,18.43
2018-09-01T11:12:19.597Z,18.51
2018-09-01T11:14:48.394Z,18.53
2018-09-01T11:17:18.016Z,18.48
2018-09-01T11:19:46.900Z,18.52
2018-09-01T11:22:16.001Z,18.47
2018-09-01T11:24:44.910Z,18.41
2018-09-01T11:27:13.844Z,18.46
2018-09-01T11:29:43.480Z,18.48
2018-09-01T11:32:12.225Z,18.59
2018-09-01T11:34:41.599Z,18.61
2018-09-01T11:37:10.354Z,18.67
2018-09-01T11:39:39.771Z,18.72
2018-09-01T11:42:08.612Z,18.85
2018-09-01T11:44:38.235Z,18.98
2018-09-01T11:47:07.208Z,19.05
2018-09-01T11:49:37.160Z,19.02
2018-09-01T11:52:06.389Z,18.98
2018-09-01T11:54:35.571Z,18.92
2018-09-01T11:57:05.415Z,18.78
2018-09-01T11:59:34.516Z,18.65
2018-09-01T12:02:03.520Z,18.60
2018-09-01T12:04:33.526Z,18.61
2018-09-01T12:07:02.296Z,18.57
2018-09-01T12:09:31.067Z,18.62
2018-09-01T12:12:00.410Z,18.65
2018-09-01T12:14:29.143Z,18.68
2018-09-01T12:16:58.836Z,18.77
2018-09-01T12:19:27.591Z,18.88
2018-09-01T12:21:56.502Z,19.01
2018-09-01T12:24:25.307Z,19.23
2018-09-01T12:26:54.528Z,19.36
2018-09-01T12:29:23.435Z,19.38
2018-09-01T12:31:53.257Z,19.29
2018-09-01T12:34:22.508Z,19.27
2018-09-01T12:36:51.667Z,19.35
2018-09-01T12:39:21.235Z,19.37
2018-09-01T12:41:50.040Z,19.40
2018-09-01T12:44:19.281Z,19.46
2018-09-01T12:46:48.294Z,19.49
2018-09-01T12:49:17.703Z,19.45
2018-09-01T12:51:46.507Z,19.40
2018-09-01T12:54:15.379Z,19.36
2018-09-01T12:56:45.275Z,19.33
2018-09-01T12:59:14.267Z,19.39
2018-09-01T13:01:43.964Z,19.51
2018-09-01T13:04:12.763Z,19.75
2018-09-01T13:06:42.323Z,20.05
2018-09-01T13:09:11.211Z,20.32
2018-09-01T13:11:40.495Z,20.49
2018-09-01T13:14:09.276Z,20.52
2018-09-01T13:16:38.075Z,20.33
2018-09-01T13:19:07.198Z,20.16
2018-09-01T13:21:36.766Z,19.99
2018-09-01T13:24:05.847Z,19.88
2018-09-01T13:26:34.900Z,19.86
2018-09-01T13:29:04.109Z,19.99
2018-09-01T13:31:33.560Z,20.13
2018-09-01T13:34:03.577Z,20.20
2018-09-01T13:36:32.348Z,20.24
2018-09-01T13:39:01.855Z,20.33
2018-09-01T13:41:30.656Z,20.44
2018-09-01T13:44:00.139Z,20.48
2018-09-01T13:46:28.917Z,20.50
2018-09-01T13:48:58.236Z,20.56
2018-09-01T13:51:27.019Z,20.61
2018-09-01T13:53:55.822Z,20.69
2018-09-01T13:56:24.629Z,20.84
2018-09-01T13:58:54.993Z,20.76
2018-09-01T14:01:23.790Z,20.82
2018-09-01T14:03:52.597Z,20.94
2018-09-01T14:06:21.746Z,20.99
2018-09-01T14:08:50.506Z,20.97
2018-09-01T14:11:19.927Z,21.01
2018-09-01T14:16:16.835Z,21.20
2018-09-01T14:18:45.905Z,21.26
2018-09-01T14:21:15.538Z,21.21
2018-09-01T14:23:44.389Z,21.12
2018-09-01T14:26:13.315Z,20.99
2018-09-01T14:28:42.145Z,20.85
2018-09-01T14:31:11.662Z,20.77
2018-09-01T14:33:40.939Z,20.75
2018-09-01T14:36:09.810Z,20.64
2018-09-01T14:38:39.486Z,20.52
2018-09-01T14:41:08.987Z,20.47
2018-09-01T14:43:38.364Z,20.33
2018-09-01T14:46:07.264Z,20.24
2018-09-01T14:48:37.375Z,20.12
2018-09-01T14:51:06.507Z,20.18
2018-09-01T14:53:35.636Z,20.23
2018-09-01T14:56:04.669Z,20.30
2018-09-01T14:58:34.273Z,20.33
2018-09-01T15:01:03.033Z,20.34
2018-09-01T15:03:31.802Z,20.44
2018-09-01T15:06:01.178Z,20.44
2018-09-01T15:08:29.989Z,20.36
2018-09-01T15:10:59.414Z,20.27
2018-09-01T15:13:28.168Z,20.27
2018-09-01T15:15:57.367Z,20.34
2018-09-01T15:18:26.158Z,20.28
2018-09-01T15:20:55.704Z,20.27
2018-09-01T15:23:24.464Z,20.25
2018-09-01T15:25:53.282Z,20.28
2018-09-01T15:28:22.122Z,20.30
2018-09-01T15:30:51.803Z,20.35
2018-09-01T15:33:21.424Z,20.44
2018-09-01T15:35:50.223Z,20.48
2018-09-01T15:38:19.963Z,20.49
2018-09-01T15:40:50.543Z,20.49
2018-09-01T15:43:19.863Z,20.49
2018-09-01T15:45:48.677Z,20.57
2018-09-01T15:48:18.013Z,20.69
2018-09-01T15:50:46.859Z,20.80
2018-09-01T15:53:16.273Z,20.95
2018-09-01T15:55:45.918Z,21.15
2018-09-01T15:58:15.688Z,21.38
2018-09-01T16:00:44.767Z,21.65
2018-09-01T16:03:14.300Z,22.02
2018-09-01T16:05:43.888Z,22.33
2018-09-01T16:08:12.714Z,22.62
2018-09-01T16:10:42.279Z,22.90
2018-09-01T16:13:11.071Z,23.17
2018-09-01T16:15:39.952Z,23.37
2018-09-01T16:18:08.827Z,23.51
2018-09-01T16:20:38.294Z,23.59
2018-09-01T16:23:07.446Z,23.78
2018-09-01T16:25:36.924Z,23.98
2018-09-01T16:28:06.332Z,24.03
2018-09-01T16:30:36.712Z,24.20
2018-09-01T16:33:06.789Z,24.36
2018-09-01T16:35:35.772Z,24.22
2018-09-01T16:38:05.023Z,24.02
2018-09-01T16:40:34.910Z,23.71
2018-09-01T16:43:04.917Z,23.66
2018-09-01T16:45:33.692Z,23.58
2018-09-01T16:48:03.132Z,23.46
2018-09-01T16:50:31.890Z,23.15
2018-09-01T16:53:00.666Z,22.76
2018-09-01T16:55:29.468Z,22.42
2018-09-01T16:58:00.018Z,21.99
2018-09-01T17:00:28.814Z,21.59
2018-09-01T17:02:57.629Z,21.22
2018-09-01T17:05:27.121Z,20.90
2018-09-01T17:07:55.909Z,20.62
2018-09-01T17:10:24.723Z,20.37
2018-09-01T17:12:54.307Z,20.16
2018-09-01T17:15:23.175Z,19.97
2018-09-01T17:17:52.008Z,19.80
2018-09-01T17:20:21.468Z,19.60
2018-09-01T17:22:50.314Z,19.45
2018-09-01T17:25:19.095Z,19.32
2018-09-01T17:27:47.987Z,19.20
2018-09-01T17:30:17.374Z,19.05
2018-09-01T17:32:46.355Z,18.92
2018-09-01T17:35:46.713Z,18.84
2018-09-01T17:38:16.210Z,18.73
2018-09-01T17:40:45.639Z,18.66
2018-09-01T17:43:15.641Z,18.56
2018-09-01T17:45:45.780Z,18.47
2018-09-01T17:48:15.313Z,18.39
2018-09-01T17:50:44.513Z,18.31
2018-09-01T17:53:13.579Z,18.24
2018-09-01T17:55:42.500Z,18.19
2018-09-01T17:58:12.049Z,18.15
2018-09-01T18:00:40.998Z,18.08
2018-09-01T18:03:10.447Z,17.99
2018-09-01T18:05:40.342Z,17.92
2018-09-01T18:08:09.063Z,17.84
2018-09-01T18:10:38.905Z,17.78
2018-09-01T18:13:07.687Z,17.73
2018-09-01T18:15:36.863Z,17.66
2018-09-01T18:18:06.113Z,17.60
2018-09-01T18:20:35.975Z,17.56
2018-09-01T18:23:04.821Z,17.53
2018-09-01T18:25:33.766Z,17.49
2018-09-01T18:28:02.631Z,17.46
2018-09-01T18:30:32.285Z,17.45
2018-09-01T18:33:01.555Z,17.42
2018-09-01T18:35:30.336Z,17.39
2018-09-01T18:37:59.066Z,17.38
2018-09-01T18:40:28.510Z,17.36
2018-09-01T18:42:57.813Z,17.35
2018-09-01T18:45:26.562Z,17.34
2018-09-01T18:47:55.949Z,17.31
2018-09-01T18:50:24.699Z,17.30
2018-09-01T18:52:53.475Z,17.31
2018-09-01T18:55:22.251Z,17.31
2018-09-01T18:57:52.076Z,17.29
2018-09-01T19:00:20.938Z,17.25
2018-09-01T19:02:49.754Z,17.23
2018-09-01T19:05:19.233Z,17.20
2018-09-01T19:07:47.968Z,17.17
2018-09-01T19:10:17.092Z,17.15
2018-09-01T19:12:46.499Z,17.10
2018-09-01T19:15:15.448Z,17.06
2018-09-01T19:17:44.453Z,17.02
2018-09-01T19:20:15.447Z,17.00
2018-09-01T19:22:44.519Z,16.95
2018-09-01T19:25:13.531Z,16.87
2018-09-01T19:27:42.445Z,16.81
2018-09-01T19:30:12.012Z,16.74
2018-09-01T19:32:40.861Z,16.69
2018-09-01T19:35:11.123Z,16.64
2018-09-01T19:37:39.895Z,16.59
2018-09-01T19:40:09.875Z,16.53
2018-09-01T19:42:39.330Z,16.45
2018-09-01T19:45:08.260Z,16.40
2018-09-01T19:47:37.514Z,16.37
2018-09-01T19:50:07.723Z,16.34
2018-09-01T19:52:36.863Z,16.31
2018-09-01T19:55:06.720Z,16.29
2018-09-01T19:57:36.753Z,16.24
2018-09-01T20:00:07.097Z,16.17
2018-09-01T20:02:36.233Z,16.12
2018-09-01T20:05:06.024Z,16.08
2018-09-01T20:07:35.203Z,16.03
2018-09-01T20:10:04.150Z,15.99
2018-09-01T20:13:05.383Z,15.95
2018-09-01T20:15:35.989Z,15.89
2018-09-01T20:18:05.148Z,15.84
2018-09-01T20:20:36.065Z,15.80
2018-09-01T20:23:05.775Z,15.77
2018-09-01T20:25:34.688Z,15.74
2018-09-01T20:28:03.540Z,15.74
2018-09-01T20:30:33.004Z,15.73
2018-09-01T20:33:02.523Z,15.70
2018-09-01T20:35:36.567Z,15.67
2018-09-01T20:38:06.179Z,15.65
2018-09-01T20:40:36.583Z,15.62
2018-09-01T20:43:06.199Z,15.60
2018-09-01T20:45:35.888Z,15.57
2018-09-01T20:48:05.900Z,15.55
2018-09-01T20:50:34.836Z,15.51
2018-09-01T20:53:03.691Z,15.49
2018-09-01T20:55:32.640Z,15.46
2018-09-01T20:58:01.892Z,15.43
2018-09-01T21:00:30.752Z,15.36
2018-09-01T21:02:59.611Z,15.31
2018-09-01T21:05:29.245Z,15.26
2018-09-01T21:07:58.122Z,15.21
2018-09-01T21:10:27.370Z,15.17
2018-09-01T21:12:56.751Z,15.14
2018-09-01T21:15:25.509Z,15.10
2018-09-01T21:17:54.304Z,15.07
2018-09-01T21:20:23.744Z,15.01
2018-09-01T21:22:52.602Z,15.00
2018-09-01T21:25:21.801Z,14.99
2018-09-01T21:27:50.615Z,14.93
2018-09-01T21:30:20.011Z,14.87
2018-09-01T21:32:48.916Z,14.85
2018-09-01T21:35:18.424Z,14.80
2018-09-01T21:37:47.220Z,14.77
2018-09-01T21:40:17.219Z,14.73
2018-09-01T21:42:47.118Z,14.69
2018-09-01T21:45:16.051Z,14.67
2018-09-01T21:47:45.753Z,14.60
2018-09-01T21:50:14.672Z,14.54
2018-09-01T21:52:43.651Z,14.51
2018-09-01T21:55:12.640Z,14.48
2018-09-01T21:57:42.061Z,14.45
2018-09-01T22:00:11.276Z,14.43
2018-09-01T22:02:40.040Z,14.39
2018-09-01T22:05:15.827Z,14.37
2018-09-01T22:07:45.065Z,14.33
2018-09-01T22:10:13.916Z,14.28
2018-09-01T22:12:43.354Z,14.25
2018-09-01T22:15:12.142Z,14.21
2018-09-01T22:17:40.924Z,14.19
2018-09-01T22:20:10.291Z,14.15
2018-09-01T22:22:39.051Z,14.12
2018-09-01T22:25:07.941Z,14.07
2018-09-01T22:27:37.071Z,14.05
2018-09-01T22:30:07.268Z,14.04
2018-09-01T22:32:36.329Z,14.01
2018-09-01T22:35:06.052Z,13.97
2018-09-01T22:37:35.142Z,13.93
2018-09-01T22:40:05.219Z,13.91
2018-09-01T22:42:35.059Z,13.87
2018-09-01T22:45:03.839Z,13.85
2018-09-01T22:47:34.660Z,13.83
2018-09-01T22:50:05.647Z,13.81
2018-09-01T22:52:34.779Z,13.79
2018-09-01T22:55:03.632Z,13.72
2018-09-01T22:57:33.214Z,13.67
2018-09-01T23:00:01.983Z,13.63
2018-09-01T23:02:30.721Z,13.61
2018-09-01T23:05:00.171Z,13.60
2018-09-01T23:07:28.962Z,13.55
2018-09-01T23:09:57.736Z,13.54
2018-09-01T23:12:27.764Z,13.51
2018-09-01T23:14:56.681Z,13.49
2018-09-01T23:17:25.452Z,13.47
2018-09-01T23:19:55.024Z,13.42
2018-09-01T23:22:23.789Z,13.37
2018-09-01T23:24:52.559Z,13.31
2018-09-01T23:27:21.394Z,13.27
2018-09-01T23:29:51.238Z,13.24
2018-09-01T23:32:20.120Z,13.22
2018-09-01T23:34:49.767Z,13.21
2018-09-01T23:37:18.539Z,13.18
2018-09-01T23:39:47.959Z,13.12
2018-09-01T23:42:16.715Z,13.06
2018-09-01T23:44:46.086Z,12.98
2018-09-01T23:47:15.009Z,12.92
2018-09-01T23:49:44.652Z,12.92
2018-09-01T23:52:13.589Z,12.91
2018-09-01T23:54:42.343Z,12.90
2018-09-01T23:57:11.925Z,12.90
2018-09-01T23:59:40.771Z,12.88
